createdAt,value
2023-03-05T00:00:16.436Z,98505.13
2023-03-05T00:03:03.121Z,98509.59
2023-03-05T00:05:48.344Z,98506.63
2023-03-05T00:08:34.323Z,98509.16
2023-03-05T00:11:21.076Z,98511.78
2023-03-05T00:14:06.767Z,98512.50
2023-03-05T00:16:52.098Z,98479.84
2023-03-05T00:19:37.486Z,98491.66
2023-03-05T00:22:22.808Z,98470.19
2023-03-05T00:25:08.783Z,98491.63
2023-03-05T00:27:54.391Z,98500.09
2023-03-05T00:30:40.605Z,98490.38
2023-03-05T00:33:26.123Z,98491.06
2023-03-05T00:36:11.716Z,98489.34
2023-03-05T00:38:58.243Z,98476.03
2023-03-05T00:41:44.202Z,98475.16
2023-03-05T00:44:30.224Z,98478.94
2023-03-05T00:47:15.499Z,98479.00
2023-03-05T00:50:03.163Z,98470.09
2023-03-05T00:52:48.760Z,98474.72
2023-03-05T00:55:34.088Z,98477.94
2023-03-05T00:58:19.270Z,98469.16
2023-03-05T01:01:05.933Z,98463.31
2023-03-05T01:03:52.038Z,98473.59
2023-03-05T01:06:37.613Z,98465.97
2023-03-05T01:09:22.768Z,98406.06
2023-03-05T01:12:08.355Z,98460.53
2023-03-05T01:14:54.011Z,98449.94
2023-03-05T01:17:39.401Z,98457.38
2023-03-05T01:20:25.095Z,98457.22
2023-03-05T01:23:11.452Z,98450.25
2023-03-05T01:25:58.781Z,98453.94
2023-03-05T01:28:44.744Z,98455.50
2023-03-05T01:31:30.400Z,98444.25
2023-03-05T01:34:16.203Z,98433.84
2023-03-05T01:37:01.394Z,98437.72
2023-03-05T01:39:47.074Z,98430.66
2023-03-05T01:42:32.322Z,98447.44
2023-03-05T01:45:18.646Z,98435.22
2023-03-05T01:48:04.878Z,98377.38
2023-03-05T01:50:50.236Z,98429.50
2023-03-05T01:53:36.795Z,98433.56
2023-03-05T01:56:22.513Z,98376.38
2023-03-05T01:59:08.000Z,98426.22
2023-03-05T02:01:56.544Z,98379.19
2023-03-05T02:04:46.460Z,98411.81
2023-03-05T02:07:32.361Z,98410.00
2023-03-05T02:10:24.489Z,98398.66
2023-03-05T02:13:13.517Z,98370.91
2023-03-05T02:16:00.017Z,98402.31
2023-03-05T02:18:45.523Z,98381.59
2023-03-05T02:21:43.130Z,98388.00
2023-03-05T02:24:36.841Z,98388.97
2023-03-05T02:27:27.898Z,98372.13
2023-03-05T02:30:12.999Z,98385.53
2023-03-05T02:32:58.921Z,98376.78
2023-03-05T02:35:45.410Z,98384.75
2023-03-05T02:38:31.003Z,98333.34
2023-03-05T02:41:16.502Z,98321.13
2023-03-05T02:44:02.355Z,98354.66
2023-03-05T02:46:47.621Z,98374.44
2023-03-05T02:49:32.832Z,98377.97
2023-03-05T02:52:18.222Z,98375.97
2023-03-05T02:55:04.417Z,98307.94
2023-03-05T02:57:49.467Z,98310.44
2023-03-05T03:00:34.774Z,98310.69
2023-03-05T03:03:20.115Z,98362.16
2023-03-05T03:06:06.127Z,98283.13
2023-03-05T03:08:51.855Z,98348.13
2023-03-05T03:11:37.462Z,98346.88
2023-03-05T03:14:22.963Z,98354.97
2023-03-05T03:17:14.826Z,98346.88
2023-03-05T03:20:00.918Z,98351.56
2023-03-05T03:22:46.851Z,98349.06
2023-03-05T03:25:32.507Z,98350.00
2023-03-05T03:28:17.879Z,98350.50
2023-03-05T03:31:03.440Z,98347.91
2023-03-05T03:33:49.633Z,98345.72
2023-03-05T03:36:35.116Z,98339.47
2023-03-05T03:39:21.105Z,98330.59
2023-03-05T03:42:06.430Z,98316.63
2023-03-05T03:44:52.343Z,98320.19
2023-03-05T03:47:37.680Z,98316.50
2023-03-05T03:50:23.172Z,98315.81
2023-03-05T03:53:09.337Z,98307.63
2023-03-05T03:55:58.629Z,98314.13
2023-03-05T03:58:44.679Z,98295.94
2023-03-05T04:01:29.816Z,98309.78
2023-03-05T04:04:15.560Z,98301.84
2023-03-05T04:07:00.695Z,98262.22
2023-03-05T04:09:45.880Z,98299.66
2023-03-05T04:12:31.329Z,98228.56
2023-03-05T04:15:17.655Z,98288.88
2023-03-05T04:18:02.926Z,98282.72
2023-03-05T04:20:48.463Z,98219.69
2023-03-05T04:23:34.034Z,98290.66
2023-03-05T04:26:19.471Z,98224.06
2023-03-05T04:29:05.579Z,98282.19
2023-03-05T04:31:50.801Z,98284.69
2023-03-05T04:34:37.972Z,98293.72
2023-03-05T04:37:24.611Z,98283.13
2023-03-05T04:40:11.101Z,98280.94
2023-03-05T04:42:56.492Z,98236.00
2023-03-05T04:45:43.778Z,98275.09
2023-03-05T04:48:29.487Z,98255.41
2023-03-05T04:51:14.874Z,98238.44
2023-03-05T04:54:00.459Z,98261.31
2023-03-05T04:56:45.974Z,98221.56
2023-03-05T04:59:32.258Z,98213.63
2023-03-05T05:02:17.487Z,98258.31
2023-03-05T05:05:02.950Z,98240.09
2023-03-05T05:07:48.675Z,98232.31
2023-03-05T05:10:33.815Z,98239.44
2023-03-05T05:13:19.286Z,98238.56
2023-03-05T05:16:09.149Z,98221.34
2023-03-05T05:18:54.282Z,98225.72
2023-03-05T05:21:39.849Z,98233.63
2023-03-05T05:24:25.132Z,98221.34
2023-03-05T05:27:10.360Z,98229.81
2023-03-05T05:29:56.037Z,98231.63
2023-03-05T05:32:41.544Z,98231.34
2023-03-05T05:35:27.004Z,98217.75
2023-03-05T05:38:12.301Z,98235.56
2023-03-05T05:41:09.715Z,98156.38
2023-03-05T05:43:55.033Z,98229.91
2023-03-05T05:46:40.536Z,98242.69
2023-03-05T05:49:25.605Z,98233.44
2023-03-05T05:52:11.100Z,98174.06
2023-03-05T05:54:56.485Z,98199.59
2023-03-05T05:57:41.710Z,98237.97
2023-03-05T06:00:27.149Z,98240.28
2023-03-05T06:03:12.374Z,98194.63
2023-03-05T06:05:57.783Z,98238.06
2023-03-05T06:08:43.776Z,98225.72
2023-03-05T06:11:29.092Z,98224.34
2023-03-05T06:14:14.393Z,98231.44
2023-03-05T06:16:59.804Z,98236.38
2023-03-05T06:19:45.659Z,98184.13
2023-03-05T06:22:30.789Z,98233.31
2023-03-05T06:25:16.459Z,98229.63
2023-03-05T06:28:01.858Z,98230.34
2023-03-05T06:30:47.525Z,98240.91
2023-03-05T06:33:34.163Z,98167.38
2023-03-05T06:36:21.395Z,98222.44
2023-03-05T06:39:07.391Z,98227.09
2023-03-05T06:41:52.574Z,98220.06
2023-03-05T06:44:41.074Z,98221.56
2023-03-05T06:47:26.308Z,98219.09
2023-03-05T06:50:12.300Z,98212.28
2023-03-05T06:52:57.848Z,98186.53
2023-03-05T06:55:43.371Z,98213.53
2023-03-05T06:58:28.748Z,98199.53
2023-03-05T07:01:15.260Z,98215.47
2023-03-05T07:04:00.790Z,98214.78
2023-03-05T07:06:46.457Z,98177.69
2023-03-05T07:09:32.007Z,98209.03
2023-03-05T07:12:17.719Z,98204.78
2023-03-05T07:15:02.928Z,98207.66
2023-03-05T07:17:48.409Z,98209.31
2023-03-05T07:20:35.750Z,98205.59
2023-03-05T07:23:21.102Z,98206.31
2023-03-05T07:26:07.028Z,98203.00
2023-03-05T07:28:52.951Z,98151.50
2023-03-05T07:31:38.770Z,98209.97
2023-03-05T07:34:26.094Z,98161.94
2023-03-05T07:37:13.975Z,98207.94
2023-03-05T07:39:59.146Z,98203.56
2023-03-05T07:42:44.815Z,98209.16
2023-03-05T07:45:44.193Z,98117.28
2023-03-05T07:48:29.556Z,98203.28
2023-03-05T07:51:17.682Z,98204.38
2023-03-05T07:54:03.058Z,98176.44
2023-03-05T07:56:48.352Z,98201.91
2023-03-05T07:59:33.839Z,98199.47
2023-03-05T08:02:19.187Z,98193.81
2023-03-05T08:05:04.807Z,98204.09
2023-03-05T08:07:50.240Z,98198.22
2023-03-05T08:10:37.245Z,98180.97
2023-03-05T08:13:22.425Z,98194.50
2023-03-05T08:16:13.240Z,98194.66
2023-03-05T08:18:59.004Z,98192.59
2023-03-05T08:21:45.200Z,98187.38
2023-03-05T08:24:31.010Z,98194.50
2023-03-05T08:27:16.365Z,98182.56
2023-03-05T08:30:02.203Z,98123.47
2023-03-05T08:32:49.991Z,98182.16
2023-03-05T08:35:35.252Z,98167.88
2023-03-05T08:38:21.160Z,98171.69
2023-03-05T08:41:06.599Z,98140.78
2023-03-05T08:43:52.111Z,98138.03
2023-03-05T08:46:40.372Z,98138.63
2023-03-05T08:49:25.623Z,98166.66
2023-03-05T08:52:10.999Z,98148.94
2023-03-05T08:54:56.782Z,98150.28
2023-03-05T08:57:42.341Z,98159.44
2023-03-05T09:00:27.666Z,98149.78
2023-03-05T09:03:12.964Z,98157.72
2023-03-05T09:06:03.473Z,98148.47
2023-03-05T09:08:48.990Z,98139.38
2023-03-05T09:11:34.678Z,98107.34
2023-03-05T09:14:20.100Z,98143.56
2023-03-05T09:17:05.642Z,98069.56
2023-03-05T09:19:50.796Z,98114.44
2023-03-05T09:22:36.184Z,98104.31
2023-03-05T09:25:21.575Z,98126.59
2023-03-05T09:28:07.769Z,98143.28
2023-03-05T09:30:53.268Z,98082.63
2023-03-05T09:33:39.683Z,98143.63
2023-03-05T09:36:28.284Z,98154.53
2023-03-05T09:39:13.847Z,98073.28
2023-03-05T09:42:20.292Z,98143.91
2023-03-05T09:45:29.833Z,98140.34
2023-03-05T09:48:35.164Z,98043.03
2023-03-05T09:51:29.388Z,98134.91
2023-03-05T09:54:43.480Z,98133.56
2023-03-05T09:57:48.950Z,98134.94
2023-03-05T10:00:37.110Z,98131.09
2023-03-05T10:03:30.218Z,98124.81
2023-03-05T10:06:35.326Z,98124.44
2023-03-05T10:09:36.976Z,98112.50
2023-03-05T10:12:37.855Z,98124.78
2023-03-05T10:15:38.653Z,98121.09
2023-03-05T10:18:30.190Z,98123.47
2023-03-05T10:21:15.583Z,98120.34
2023-03-05T10:24:30.550Z,98117.78
2023-03-05T10:27:51.173Z,98117.84
2023-03-05T10:31:14.498Z,98111.22
2023-03-05T10:34:12.336Z,98104.91
2023-03-05T10:37:03.227Z,98101.81
2023-03-05T10:39:56.430Z,98091.41
2023-03-05T10:42:56.494Z,98081.44
2023-03-05T10:45:45.590Z,98083.19
2023-03-05T10:48:37.583Z,98076.97
2023-03-05T10:51:34.193Z,98065.72
2023-03-05T10:54:37.741Z,98063.19
2023-03-05T10:57:41.497Z,98060.28
2023-03-05T11:00:31.017Z,98053.91
2023-03-05T11:03:24.179Z,98057.16
2023-03-05T11:06:15.754Z,98046.16
2023-03-05T11:09:32.338Z,98044.66
2023-03-05T11:12:26.481Z,98043.34
2023-03-05T11:15:12.109Z,98042.00
2023-03-05T11:18:17.418Z,98039.72
2023-03-05T11:21:12.600Z,98025.00
2023-03-05T11:24:24.470Z,98022.88
2023-03-05T11:27:36.624Z,98025.00
2023-03-05T11:30:33.396Z,98026.72
2023-03-05T11:33:22.312Z,98025.81
2023-03-05T11:36:46.563Z,98023.06
2023-03-05T11:39:36.422Z,98025.75
2023-03-05T11:42:21.982Z,98017.59
2023-03-05T11:45:21.047Z,98022.31
2023-03-05T11:48:25.570Z,98025.09
2023-03-05T11:51:43.416Z,98018.28
2023-03-05T11:54:42.301Z,98017.16
2023-03-05T11:57:34.900Z,97961.69
2023-03-05T12:00:30.906Z,98013.63
2023-03-05T12:03:29.934Z,98004.84
2023-03-05T12:06:37.586Z,97999.47
2023-03-05T12:09:30.553Z,97991.63
2023-03-05T12:12:16.088Z,97987.50
2023-03-05T12:15:22.395Z,97981.34
2023-03-05T12:18:12.608Z,97977.84
2023-03-05T12:21:00.935Z,97971.84
2023-03-05T12:23:58.100Z,97977.06
2023-03-05T12:26:53.345Z,97962.44
2023-03-05T12:29:52.467Z,97961.00
2023-03-05T12:32:43.921Z,97953.13
2023-03-05T12:35:36.750Z,97964.22
2023-03-05T12:38:30.984Z,97958.19
2023-03-05T12:41:22.626Z,97951.63
2023-03-05T12:44:08.093Z,97950.34
2023-03-05T12:47:11.866Z,97944.91
2023-03-05T12:49:57.321Z,97884.06
2023-03-05T12:52:46.081Z,97936.56
2023-03-05T12:55:36.908Z,97933.66
2023-03-05T12:58:31.500Z,97927.72
2023-03-05T13:05:39.243Z,97924.56
2023-03-05T13:08:31.246Z,97917.66
2023-03-05T13:11:20.741Z,97900.22
2023-03-05T13:14:39.534Z,97914.88
2023-03-05T13:17:56.953Z,97919.03
2023-03-05T13:20:42.130Z,97915.19
2023-03-05T13:23:28.820Z,97870.38
2023-03-05T13:26:15.751Z,97902.97
2023-03-05T13:29:10.180Z,97903.06
2023-03-05T13:32:01.501Z,97908.78
2023-03-05T13:34:48.061Z,97907.75
2023-03-05T13:37:36.794Z,97898.38
2023-03-05T13:40:27.867Z,97890.59
2023-03-05T13:43:18.407Z,97896.84
2023-03-05T13:46:04.605Z,97892.41
2023-03-05T13:48:52.481Z,97892.56
2023-03-05T13:51:44.984Z,97891.03
2023-03-05T13:54:30.586Z,97886.47
2023-03-05T13:57:43.772Z,97885.88
2023-03-05T14:00:37.303Z,97883.94
2023-03-05T14:03:28.277Z,97875.47
2023-03-05T14:06:19.668Z,97881.66
2023-03-05T14:09:08.474Z,97873.84
2023-03-05T14:12:19.597Z,97872.25
2023-03-05T14:15:21.942Z,97859.50
2023-03-05T14:18:19.314Z,97848.38
2023-03-05T14:21:10.823Z,97856.03
2023-03-05T14:23:56.042Z,97843.47
2023-03-05T14:26:49.350Z,97822.25
2023-03-05T14:29:34.820Z,97850.97
2023-03-05T14:32:35.847Z,97767.47
2023-03-05T14:35:25.195Z,97834.66
2023-03-05T14:38:22.295Z,97834.28
2023-03-05T14:41:39.624Z,97828.31
2023-03-05T14:44:25.089Z,97823.41
2023-03-05T14:47:10.523Z,97796.63
2023-03-05T14:49:56.157Z,97750.75
2023-03-05T14:52:41.892Z,97806.41
2023-03-05T14:55:29.760Z,97802.31
2023-03-05T14:58:18.256Z,97806.56
2023-03-05T15:01:04.065Z,97795.81
2023-03-05T15:03:49.218Z,97796.28
2023-03-05T15:06:37.480Z,97800.72
2023-03-05T15:09:22.998Z,97736.00
2023-03-05T15:12:11.489Z,97775.84
2023-03-05T15:14:57.485Z,97737.56
2023-03-05T15:17:45.385Z,97792.78
2023-03-05T15:20:31.574Z,97793.09
2023-03-05T15:23:16.702Z,97798.28
2023-03-05T15:26:03.164Z,97790.81
2023-03-05T15:28:48.365Z,97787.72
2023-03-05T15:31:33.510Z,97792.75
2023-03-05T15:34:20.281Z,97788.84
2023-03-05T15:37:05.814Z,97790.63
2023-03-05T15:39:53.228Z,97780.69
2023-03-05T15:42:40.088Z,97772.66
2023-03-05T15:45:25.719Z,97770.31
2023-03-05T15:48:11.853Z,97770.22
2023-03-05T15:50:57.341Z,97781.94
2023-03-05T15:53:42.719Z,97699.94
2023-03-05T15:56:28.359Z,97766.28
2023-03-05T15:59:13.482Z,97768.69
2023-03-05T16:01:59.299Z,97774.22
2023-03-05T16:04:44.809Z,97771.69
2023-03-05T16:07:32.803Z,97748.81
2023-03-05T16:10:22.191Z,97763.16
2023-03-05T16:13:12.042Z,97753.34
2023-03-05T16:15:58.206Z,97740.88
2023-03-05T16:18:46.418Z,97704.88
2023-03-05T16:21:32.061Z,97753.81
2023-03-05T16:24:17.569Z,97748.50
2023-03-05T16:27:03.263Z,97721.41
2023-03-05T16:29:51.483Z,97740.81
2023-03-05T16:32:38.642Z,97744.25
2023-03-05T16:35:24.299Z,97726.31
2023-03-05T16:38:10.148Z,97749.63
2023-03-05T16:41:07.710Z,97731.88
2023-03-05T16:43:54.721Z,97704.22
2023-03-05T16:46:40.344Z,97737.28
2023-03-05T16:49:26.217Z,97745.44
2023-03-05T16:52:18.649Z,97739.28
2023-03-05T16:55:05.736Z,97738.78
2023-03-05T16:57:51.001Z,97741.88
2023-03-05T17:00:36.697Z,97701.41
2023-03-05T17:03:22.073Z,97671.69
2023-03-05T17:06:19.635Z,97006.88
2023-03-05T17:09:05.305Z,97740.28
2023-03-05T17:11:54.410Z,97743.53
2023-03-05T17:14:39.834Z,97740.59
2023-03-05T17:17:25.303Z,97735.38
2023-03-05T17:20:13.504Z,97736.19
2023-03-05T17:22:58.731Z,97736.03
2023-03-05T17:25:44.551Z,97738.66
2023-03-05T17:28:29.603Z,97733.75
2023-03-05T17:31:15.329Z,97731.28
2023-03-05T17:34:01.646Z,97738.13
2023-03-05T17:36:47.047Z,97711.44
2023-03-05T17:39:32.756Z,97717.16
2023-03-05T17:42:18.618Z,97729.41
2023-03-05T17:45:04.127Z,97742.59
2023-03-05T17:47:50.567Z,97744.56
2023-03-05T17:50:35.970Z,97739.28
2023-03-05T17:53:22.902Z,97741.25
2023-03-05T17:56:13.176Z,97728.47
2023-03-05T17:58:58.798Z,97732.16
2023-03-05T18:01:44.187Z,97733.09
2023-03-05T18:04:29.513Z,97695.91
2023-03-05T18:07:14.859Z,97734.38
2023-03-05T18:10:00.337Z,97661.09
2023-03-05T18:12:45.849Z,97732.66
2023-03-05T18:15:31.296Z,97735.03
2023-03-05T18:18:17.618Z,97691.22
2023-03-05T18:21:03.127Z,97477.69
2023-03-05T18:23:49.653Z,97720.41
2023-03-05T18:26:35.016Z,97735.72
2023-03-05T18:29:20.585Z,97726.97
2023-03-05T18:32:06.150Z,97713.03
2023-03-05T18:34:51.898Z,97693.19
2023-03-05T18:37:37.147Z,97722.97
2023-03-05T18:40:25.530Z,97693.91
2023-03-05T18:43:11.237Z,97712.59
2023-03-05T18:45:57.006Z,97710.69
2023-03-05T18:48:43.093Z,97648.84
2023-03-05T18:51:29.744Z,97663.28
2023-03-05T18:54:15.319Z,97702.84
2023-03-05T18:57:00.962Z,97700.78
2023-03-05T18:59:46.280Z,97638.94
2023-03-05T19:02:32.465Z,97708.78
2023-03-05T19:05:18.542Z,97636.88
2023-03-05T19:08:03.732Z,97699.75
2023-03-05T19:10:51.765Z,97703.31
2023-03-05T19:13:41.298Z,97595.81
2023-03-05T19:16:29.799Z,97686.41
2023-03-05T19:19:19.484Z,97690.19
2023-03-05T19:22:05.365Z,97695.84
2023-03-05T19:24:50.916Z,97679.56
2023-03-05T19:27:37.533Z,97690.56
2023-03-05T19:30:22.998Z,97685.94
2023-03-05T19:33:09.192Z,97684.91
2023-03-05T19:35:56.806Z,97684.53
2023-03-05T19:38:41.965Z,97638.28
2023-03-05T19:41:27.350Z,97674.53
2023-03-05T19:44:13.004Z,97672.94
2023-03-05T19:46:58.436Z,97669.38
2023-03-05T19:49:43.998Z,97668.28
2023-03-05T19:52:29.538Z,97664.47
2023-03-05T19:55:16.430Z,97657.22
2023-03-05T20:01:18.665Z,97667.88
2023-03-05T20:04:05.339Z,97661.72
2023-03-05T20:06:51.261Z,97596.41
2023-03-05T20:09:36.732Z,97655.47
2023-03-05T20:12:22.863Z,97648.97
2023-03-05T20:15:08.344Z,97663.13
2023-03-05T20:17:53.561Z,97654.56
2023-03-05T20:20:38.744Z,97646.78
2023-03-05T20:23:24.668Z,97656.03
2023-03-05T20:26:09.795Z,97641.09
2023-03-05T20:28:56.614Z,97643.50
2023-03-05T20:31:41.943Z,97642.09
2023-03-05T20:34:27.589Z,97644.25
2023-03-05T20:37:12.989Z,97633.53
2023-03-05T20:39:58.367Z,97601.53
2023-03-05T20:42:43.837Z,97613.03
2023-03-05T20:45:28.968Z,97632.81
2023-03-05T20:48:14.937Z,97610.75
2023-03-05T20:51:14.246Z,97626.78
2023-03-05T20:54:04.455Z,97629.16
2023-03-05T20:56:50.279Z,97622.50
2023-03-05T20:59:35.726Z,97539.03
2023-03-05T21:02:21.630Z,97607.41
2023-03-05T21:05:07.614Z,97610.00
2023-03-05T21:07:53.500Z,97608.53
2023-03-05T21:10:38.790Z,97578.22
2023-03-05T21:13:24.273Z,97612.50
2023-03-05T21:16:13.537Z,97605.06
2023-03-05T21:18:59.001Z,97591.19
2023-03-05T21:21:44.458Z,97598.16
2023-03-05T21:25:17.979Z,97593.25
2023-03-05T21:28:12.943Z,97591.59
2023-03-05T21:30:58.522Z,97589.88
2023-03-05T21:33:44.439Z,97575.00
2023-03-05T21:36:29.985Z,97579.69
2023-03-05T21:39:15.308Z,97572.94
2023-03-05T21:42:00.829Z,97570.13
2023-03-05T21:44:46.009Z,97505.47
2023-03-05T21:47:31.717Z,97514.97
2023-03-05T21:50:17.111Z,97567.75
2023-03-05T21:53:03.109Z,97567.75
2023-03-05T21:56:00.515Z,97475.50
2023-03-05T21:58:50.177Z,97479.13
2023-03-05T22:01:35.759Z,97551.38
2023-03-05T22:04:20.964Z,97551.31
2023-03-05T22:07:06.617Z,97541.59
2023-03-05T22:09:59.223Z,97539.34
2023-03-05T22:13:20.253Z,97541.63
2023-03-05T22:16:07.541Z,97520.19
2023-03-05T22:18:53.471Z,97540.34
2023-03-05T22:21:40.217Z,97531.09
2023-03-05T22:24:25.890Z,97532.88
2023-03-05T22:27:11.362Z,97524.91
2023-03-05T22:29:56.720Z,97503.28
2023-03-05T22:32:41.963Z,97514.00
2023-03-05T22:35:27.720Z,97515.50
2023-03-05T22:38:13.883Z,97447.63
2023-03-05T22:41:00.089Z,97507.13
2023-03-05T22:43:47.075Z,97505.56
2023-03-05T22:46:32.673Z,97499.63
2023-03-05T22:49:18.129Z,97501.78
2023-03-05T22:52:04.001Z,97441.13
2023-03-05T22:54:49.147Z,97500.66
2023-03-05T22:57:34.612Z,97495.91
2023-03-05T23:00:22.505Z,97493.97
2023-03-05T23:03:07.905Z,97491.13
2023-03-05T23:05:53.600Z,97484.25
2023-03-05T23:08:39.033Z,97479.97
2023-03-05T23:11:24.510Z,97482.63
2023-03-05T23:14:09.685Z,97476.50
2023-03-05T23:16:55.358Z,97418.47
2023-03-05T23:19:40.961Z,97472.69
2023-03-05T23:22:26.160Z,97469.16
2023-03-05T23:25:13.199Z,97468.06
2023-03-05T23:27:59.535Z,97471.41
2023-03-05T23:30:45.087Z,97398.41
2023-03-05T23:33:30.608Z,97462.56
2023-03-05T23:36:16.338Z,97400.00
2023-03-05T23:39:01.994Z,97456.63
2023-03-05T23:41:47.788Z,97444.44
2023-03-05T23:44:33.087Z,97446.91
2023-03-05T23:47:18.474Z,97453.25
2023-03-05T23:50:06.165Z,97444.09
2023-03-05T23:52:51.882Z,97443.78
2023-03-05T23:55:46.668Z,97353.16
2023-03-05T23:58:32.392Z,97357.56
